createdAt,value
2023-02-09T00:01:05.729Z,95939.38
2023-02-09T00:03:32.981Z,95923.91
2023-02-09T00:06:00.699Z,95932.16
2023-02-09T00:08:27.613Z,95939.53
2023-02-09T00:10:54.741Z,95944.03
2023-02-09T00:13:25.332Z,95932.53
2023-02-09T00:16:01.865Z,95939.63
2023-02-09T00:18:30.792Z,95937.84
2023-02-09T00:21:01.890Z,95944.97
2023-02-09T00:23:30.231Z,95932.81
2023-02-09T00:26:01.399Z,95934.84
2023-02-09T00:28:28.463Z,95944.59
2023-02-09T00:30:55.271Z,95933.75
2023-02-09T00:33:23.394Z,95929.75
2023-02-09T00:35:50.175Z,95926.38
2023-02-09T00:38:17.159Z,95929.25
2023-02-09T00:40:44.260Z,95934.66
2023-02-09T00:43:11.921Z,95917.66
2023-02-09T00:45:38.690Z,95923.34
2023-02-09T00:48:05.632Z,95904.44
2023-02-09T00:50:32.281Z,95933.50
2023-02-09T00:52:59.048Z,95931.28
2023-02-09T00:55:25.786Z,95918.09
2023-02-09T00:57:52.538Z,95921.38
2023-02-09T01:00:20.615Z,95916.81
2023-02-09T01:02:47.657Z,95918.38
2023-02-09T01:05:14.501Z,95916.78
2023-02-09T01:07:41.219Z,95921.53
2023-02-09T01:10:08.102Z,95932.88
2023-02-09T01:12:34.985Z,95931.75
2023-02-09T01:15:02.469Z,95933.69
2023-02-09T01:17:29.219Z,95941.66
2023-02-09T01:19:56.256Z,95938.63
2023-02-09T01:22:23.152Z,95940.78
2023-02-09T01:24:49.949Z,95933.31
2023-02-09T01:27:17.177Z,95931.75
2023-02-09T01:29:44.107Z,95937.00
2023-02-09T01:32:10.876Z,95934.59
2023-02-09T01:34:38.252Z,95927.38
2023-02-09T01:37:05.221Z,95925.88
2023-02-09T01:39:32.344Z,95922.38
2023-02-09T01:41:59.031Z,95927.09
2023-02-09T01:44:25.695Z,95921.91
2023-02-09T01:46:52.586Z,95920.00
2023-02-09T01:49:26.404Z,95925.00
2023-02-09T01:51:57.737Z,95914.63
2023-02-09T01:54:39.356Z,95918.81
2023-02-09T01:57:10.229Z,95921.00
2023-02-09T01:59:39.286Z,95922.22
2023-02-09T02:02:06.833Z,95916.31
2023-02-09T02:04:34.539Z,95905.09
2023-02-09T02:07:11.886Z,95891.41
2023-02-09T02:09:38.635Z,95891.56
2023-02-09T02:12:05.726Z,95892.78
2023-02-09T02:14:38.213Z,95875.22
2023-02-09T02:17:42.880Z,95879.19
2023-02-09T02:20:44.005Z,95875.91
2023-02-09T02:23:29.965Z,95876.25
2023-02-09T02:25:56.662Z,95876.38
2023-02-09T02:28:45.214Z,95869.53
2023-02-09T02:31:49.047Z,95871.34
2023-02-09T02:34:23.303Z,95869.44
2023-02-09T02:37:01.810Z,95863.66
2023-02-09T02:39:45.357Z,95852.16
2023-02-09T02:42:47.849Z,95841.56
2023-02-09T02:45:43.216Z,95859.44
2023-02-09T02:48:25.262Z,95847.88
2023-02-09T02:51:03.176Z,95847.00
2023-02-09T02:53:32.627Z,95845.84
2023-02-09T02:56:20.586Z,95839.47
2023-02-09T02:58:49.396Z,95839.84
2023-02-09T03:01:19.477Z,95829.47
2023-02-09T03:03:46.680Z,95823.56
2023-02-09T03:06:14.174Z,95832.41
2023-02-09T03:08:55.605Z,95824.97
2023-02-09T03:11:25.172Z,95818.09
2023-02-09T03:14:06.326Z,95816.34
2023-02-09T03:16:48.869Z,95819.69
2023-02-09T03:19:41.406Z,95820.53
2023-02-09T03:22:17.082Z,95816.06
2023-02-09T03:24:43.767Z,95807.03
2023-02-09T03:27:17.131Z,95809.56
2023-02-09T03:29:49.488Z,95804.44
2023-02-09T03:32:17.796Z,95807.94
2023-02-09T03:34:45.868Z,95807.72
2023-02-09T03:37:12.788Z,95805.72
2023-02-09T03:39:39.748Z,95812.13
2023-02-09T03:42:06.828Z,95808.91
2023-02-09T03:44:33.541Z,95807.69
2023-02-09T03:47:02.758Z,95806.25
2023-02-09T03:49:33.660Z,95804.47
2023-02-09T03:52:01.959Z,95804.53
2023-02-09T03:54:32.888Z,95800.31
2023-02-09T03:57:00.666Z,95800.13
2023-02-09T03:59:28.018Z,95788.28
2023-02-09T04:01:56.186Z,95790.22
2023-02-09T04:04:23.428Z,95790.34
2023-02-09T04:06:50.215Z,95790.59
2023-02-09T04:09:16.999Z,95793.59
2023-02-09T04:11:43.675Z,95795.72
2023-02-09T04:14:10.893Z,95797.38
2023-02-09T04:16:38.031Z,95808.31
2023-02-09T04:19:05.668Z,95794.94
2023-02-09T04:21:32.838Z,95797.81
2023-02-09T04:23:59.594Z,95795.38
2023-02-09T04:26:26.282Z,95807.94
2023-02-09T04:28:53.062Z,95804.06
2023-02-09T04:31:19.899Z,95816.38
2023-02-09T04:33:46.687Z,95817.13
2023-02-09T04:36:13.526Z,95814.00
2023-02-09T04:38:40.555Z,95808.25
2023-02-09T04:41:07.327Z,95810.13
2023-02-09T04:43:34.408Z,95810.84
2023-02-09T04:46:01.347Z,95804.31
2023-02-09T04:48:29.533Z,95803.16
2023-02-09T04:50:56.437Z,95807.16
2023-02-09T04:53:23.952Z,95807.22
2023-02-09T04:55:51.528Z,95812.13
2023-02-09T04:58:38.736Z,95817.19
2023-02-09T05:01:06.161Z,95813.94
2023-02-09T05:03:33.073Z,95818.41
2023-02-09T05:06:04.602Z,95811.59
2023-02-09T05:08:31.931Z,95814.03
2023-02-09T05:10:58.996Z,95819.28
2023-02-09T05:13:26.539Z,95807.97
2023-02-09T05:15:53.759Z,95815.22
2023-02-09T05:18:20.531Z,95816.78
2023-02-09T05:20:47.884Z,95815.63
2023-02-09T05:23:14.804Z,95822.00
2023-02-09T05:25:42.002Z,95817.91
2023-02-09T05:28:08.795Z,95817.19
2023-02-09T05:30:35.420Z,95823.56
2023-02-09T05:33:03.193Z,95822.16
2023-02-09T05:35:30.038Z,95818.13
2023-02-09T05:37:56.711Z,95822.84
2023-02-09T05:40:23.394Z,95829.47
2023-02-09T05:42:50.067Z,95826.09
2023-02-09T05:45:16.776Z,95828.09
2023-02-09T05:47:45.418Z,95824.19
2023-02-09T05:50:12.199Z,95822.56
2023-02-09T05:52:38.920Z,95824.22
2023-02-09T05:55:05.887Z,95832.81
2023-02-09T05:57:32.539Z,95828.88
2023-02-09T05:59:59.280Z,95826.91
2023-02-09T06:02:25.999Z,95834.31
2023-02-09T06:04:52.783Z,95838.44
2023-02-09T06:07:19.415Z,95835.31
2023-02-09T06:09:46.257Z,95841.91
2023-02-09T06:12:13.044Z,95848.13
2023-02-09T06:14:39.789Z,95845.28
2023-02-09T06:17:06.503Z,95851.66
2023-02-09T06:19:33.225Z,95843.00
2023-02-09T06:21:59.992Z,95857.53
2023-02-09T06:24:26.851Z,95842.81
2023-02-09T06:26:53.622Z,95850.94
2023-02-09T06:29:20.375Z,95856.75
2023-02-09T06:31:47.326Z,95853.34
2023-02-09T06:34:14.201Z,95853.81
2023-02-09T06:36:40.934Z,95853.88
2023-02-09T06:39:08.789Z,95863.81
2023-02-09T06:41:35.583Z,95861.03
2023-02-09T06:44:02.348Z,95858.66
2023-02-09T06:46:29.135Z,95861.34
2023-02-09T06:48:56.502Z,95862.44
2023-02-09T06:51:24.066Z,95869.34
2023-02-09T06:53:51.048Z,95855.13
2023-02-09T06:56:17.860Z,95858.78
2023-02-09T06:58:44.600Z,95860.34
2023-02-09T07:01:15.760Z,95859.25
2023-02-09T07:03:43.325Z,95865.97
2023-02-09T07:06:18.628Z,95867.69
2023-02-09T07:08:46.268Z,95848.84
2023-02-09T07:11:15.610Z,95844.03
2023-02-09T07:13:42.957Z,95848.59
2023-02-09T07:16:11.406Z,95847.50
2023-02-09T07:18:39.830Z,95844.88
2023-02-09T07:21:09.248Z,95855.75
2023-02-09T07:23:36.386Z,95861.63
2023-02-09T07:26:05.009Z,95870.47
2023-02-09T07:28:32.324Z,95854.63
2023-02-09T07:31:04.124Z,95854.41
2023-02-09T07:33:30.958Z,95858.78
2023-02-09T07:35:57.958Z,95861.03
2023-02-09T07:38:25.014Z,95864.00
2023-02-09T07:40:51.929Z,95854.41
2023-02-09T07:43:18.715Z,95863.41
2023-02-09T07:45:45.621Z,95862.13
2023-02-09T07:48:12.596Z,95858.16
2023-02-09T07:50:39.430Z,95856.13
2023-02-09T07:53:06.150Z,95847.22
2023-02-09T07:55:32.879Z,95845.78
2023-02-09T07:57:59.632Z,95844.75
2023-02-09T08:00:26.455Z,95833.16
2023-02-09T08:02:53.292Z,95832.88
2023-02-09T08:05:28.815Z,95842.88
2023-02-09T08:07:56.191Z,95840.56
2023-02-09T08:10:23.280Z,95841.72
2023-02-09T08:13:05.239Z,95840.41
2023-02-09T08:15:45.080Z,95841.91
2023-02-09T08:18:15.628Z,95822.13
2023-02-09T08:20:43.746Z,95819.75
2023-02-09T08:23:16.948Z,95824.28
2023-02-09T08:25:44.004Z,95830.44
2023-02-09T08:28:11.152Z,95828.06
2023-02-09T08:30:38.446Z,95834.31
2023-02-09T08:33:05.142Z,95826.50
2023-02-09T08:35:31.941Z,95826.69
2023-02-09T08:38:01.246Z,95823.81
2023-02-09T08:40:28.388Z,95821.38
2023-02-09T08:42:55.134Z,95827.81
2023-02-09T08:45:22.438Z,95802.59
2023-02-09T08:47:49.188Z,95816.09
2023-02-09T08:50:16.297Z,95815.22
2023-02-09T08:52:43.012Z,95827.22
2023-02-09T08:55:10.112Z,95811.94
2023-02-09T08:57:44.125Z,95802.72
2023-02-09T09:00:11.951Z,95810.19
2023-02-09T09:02:38.783Z,95803.13
2023-02-09T09:05:05.840Z,95816.31
2023-02-09T09:07:32.686Z,95813.50
2023-02-09T09:09:59.492Z,95802.94
2023-02-09T09:12:26.263Z,95802.94
2023-02-09T09:14:53.091Z,95811.47
2023-02-09T09:17:19.773Z,95806.81
2023-02-09T09:19:46.706Z,95795.00
2023-02-09T09:22:13.472Z,95783.06
2023-02-09T09:24:43.160Z,95793.63
2023-02-09T09:27:11.121Z,95787.56
2023-02-09T09:29:40.137Z,95773.78
2023-02-09T09:32:08.193Z,95779.38
2023-02-09T09:34:35.067Z,95770.81
2023-02-09T09:37:01.761Z,95774.09
2023-02-09T09:39:28.662Z,95771.34
2023-02-09T09:41:59.545Z,95762.16
2023-02-09T09:44:46.916Z,95772.63
2023-02-09T09:47:18.500Z,95766.28
2023-02-09T09:49:45.364Z,95765.50
2023-02-09T09:52:36.700Z,95768.44
2023-02-09T09:55:06.659Z,95763.22
2023-02-09T09:57:38.739Z,95744.84
2023-02-09T10:00:23.188Z,95758.53
2023-02-09T10:02:49.940Z,95750.22
2023-02-09T10:05:26.159Z,95753.84
2023-02-09T10:08:07.986Z,95760.69
2023-02-09T10:10:40.800Z,95748.38
2023-02-09T10:13:21.258Z,95747.28
2023-02-09T10:15:50.242Z,95736.44
2023-02-09T10:18:17.932Z,95735.59
2023-02-09T10:20:46.969Z,95732.63
2023-02-09T10:23:28.785Z,95725.94
2023-02-09T10:26:00.939Z,95729.69
2023-02-09T10:28:31.251Z,95725.09
2023-02-09T10:31:00.882Z,95717.03
2023-02-09T10:33:30.346Z,95713.19
2023-02-09T10:36:01.173Z,95704.69
2023-02-09T10:38:33.152Z,95713.63
2023-02-09T10:41:00.663Z,95705.88
2023-02-09T10:43:31.465Z,95702.72
2023-02-09T10:46:00.466Z,95695.63
2023-02-09T10:48:28.063Z,95684.94
2023-02-09T10:50:57.305Z,95678.09
2023-02-09T10:53:36.663Z,95685.59
2023-02-09T10:56:15.930Z,95670.09
2023-02-09T10:58:50.472Z,95664.97
2023-02-09T11:01:24.905Z,95666.25
2023-02-09T11:04:02.361Z,95660.91
2023-02-09T11:06:35.892Z,95662.16
2023-02-09T11:09:07.306Z,95650.41
2023-02-09T11:11:37.005Z,95645.28
2023-02-09T11:14:06.337Z,95642.91
2023-02-09T11:17:01.108Z,95633.16
2023-02-09T11:19:58.749Z,95640.56
2023-02-09T11:22:48.586Z,95622.34
2023-02-09T11:25:21.269Z,95626.16
2023-02-09T11:28:19.516Z,95621.41
2023-02-09T11:31:10.194Z,95615.56
2023-02-09T11:33:53.222Z,95611.66
2023-02-09T11:36:39.489Z,95599.44
2023-02-09T11:39:11.960Z,95594.97
2023-02-09T11:42:31.229Z,95588.84
2023-02-09T11:45:00.259Z,95590.47
2023-02-09T11:47:49.240Z,95583.81
2023-02-09T11:50:22.579Z,95585.06
2023-02-09T11:52:53.128Z,95579.00
2023-02-09T11:55:33.995Z,95569.09
2023-02-09T11:58:32.699Z,95569.03
2023-02-09T12:01:24.419Z,95563.66
2023-02-09T12:03:59.684Z,95557.97
2023-02-09T12:06:35.767Z,95557.97
2023-02-09T12:09:04.897Z,95554.22
2023-02-09T12:11:57.906Z,95543.06
2023-02-09T12:14:36.524Z,95538.00
2023-02-09T12:17:35.596Z,95531.78
2023-02-09T12:20:02.710Z,95531.25
2023-02-09T12:22:35.644Z,95529.47
2023-02-09T12:25:17.528Z,95517.53
2023-02-09T12:28:17.251Z,95518.00
2023-02-09T12:30:44.265Z,95509.56
2023-02-09T12:33:24.501Z,95509.38
2023-02-09T12:36:09.629Z,95507.16
2023-02-09T12:38:55.498Z,95500.75
2023-02-09T12:41:25.893Z,95500.84
2023-02-09T12:44:11.131Z,95499.41
2023-02-09T12:46:55.778Z,95487.59
2023-02-09T12:49:28.932Z,95492.59
2023-02-09T12:52:01.772Z,95493.66
2023-02-09T12:54:56.834Z,95489.06
2023-02-09T12:57:23.981Z,95486.88
2023-02-09T12:59:51.034Z,95480.09
2023-02-09T13:02:27.274Z,95477.25
2023-02-09T13:05:00.242Z,95479.88
2023-02-09T13:07:43.245Z,95484.66
2023-02-09T13:10:51.435Z,95481.13
2023-02-09T13:13:20.521Z,95475.34
2023-02-09T13:16:05.390Z,95480.28
2023-02-09T13:18:50.710Z,95469.53
2023-02-09T13:21:42.277Z,95472.19
2023-02-09T13:24:15.370Z,95470.88
2023-02-09T13:26:56.806Z,95477.31
2023-02-09T13:29:25.992Z,95478.97
2023-02-09T13:32:09.898Z,95476.19
2023-02-09T13:34:55.347Z,95469.31
2023-02-09T13:37:27.393Z,95474.84
2023-02-09T13:39:57.804Z,95473.47
2023-02-09T13:42:26.503Z,95468.91
2023-02-09T13:44:55.581Z,95469.88
2023-02-09T13:47:22.732Z,95469.63
2023-02-09T13:50:13.963Z,95461.47
2023-02-09T13:52:40.885Z,95469.88
2023-02-09T13:55:21.140Z,95462.44
2023-02-09T13:58:08.127Z,95463.31
2023-02-09T14:00:43.862Z,95457.09
2023-02-09T14:03:22.311Z,95460.22
2023-02-09T14:06:00.894Z,95458.69
2023-02-09T14:08:29.427Z,95463.69
2023-02-09T14:11:05.461Z,95465.31
2023-02-09T14:13:40.772Z,95462.22
2023-02-09T14:16:07.808Z,95457.75
2023-02-09T14:18:53.845Z,95443.59
2023-02-09T14:21:40.212Z,95455.25
2023-02-09T14:24:08.565Z,95453.81
2023-02-09T14:26:41.583Z,95450.06
2023-02-09T14:29:18.162Z,95451.50
2023-02-09T14:31:50.393Z,95449.19
2023-02-09T14:34:27.322Z,95447.28
2023-02-09T14:37:02.852Z,95448.50
2023-02-09T14:39:31.639Z,95451.00
2023-02-09T14:42:01.064Z,95449.88
2023-02-09T14:44:28.724Z,95448.28
2023-02-09T14:46:59.257Z,95459.22
2023-02-09T14:49:26.484Z,95451.09
2023-02-09T14:52:13.605Z,95450.06
2023-02-09T14:54:47.474Z,95458.13
2023-02-09T14:57:14.241Z,95456.72
2023-02-09T14:59:40.996Z,95459.63
2023-02-09T15:02:20.057Z,95462.31
2023-02-09T15:04:47.291Z,95464.06
2023-02-09T15:07:19.073Z,95460.16
2023-02-09T15:09:46.276Z,95464.69
2023-02-09T15:12:28.072Z,95463.63
2023-02-09T15:14:58.803Z,95462.19
2023-02-09T15:17:30.278Z,95459.75
2023-02-09T15:19:58.121Z,95462.34
2023-02-09T15:22:25.528Z,95461.56
2023-02-09T15:24:54.481Z,95469.78
2023-02-09T15:27:29.238Z,95472.75
2023-02-09T15:29:58.964Z,95476.13
2023-02-09T15:32:26.911Z,95463.63
2023-02-09T15:34:54.285Z,95471.94
2023-02-09T15:37:29.753Z,95477.34
2023-02-09T15:39:59.884Z,95475.66
2023-02-09T15:42:45.376Z,95483.78
2023-02-09T15:45:35.343Z,95480.63
2023-02-09T15:48:02.563Z,95484.81
2023-02-09T15:50:30.500Z,95491.00
2023-02-09T15:52:58.213Z,95490.53
2023-02-09T15:55:26.498Z,95495.81
2023-02-09T15:57:54.018Z,95499.19
2023-02-09T16:00:24.832Z,95498.31
2023-02-09T16:02:56.297Z,95514.09
2023-02-09T16:05:24.974Z,95511.78
2023-02-09T16:07:52.917Z,95512.63
2023-02-09T16:10:23.311Z,95522.03
2023-02-09T16:12:50.324Z,95518.88
2023-02-09T16:15:19.090Z,95520.50
2023-02-09T16:17:45.949Z,95531.72
2023-02-09T16:20:13.917Z,95523.81
2023-02-09T16:22:43.123Z,95542.88
2023-02-09T16:25:19.466Z,95530.47
2023-02-09T16:27:46.392Z,95536.38
2023-02-09T16:30:18.490Z,95544.84
2023-02-09T16:32:45.866Z,95547.72
2023-02-09T16:35:16.924Z,95550.09
2023-02-09T16:37:45.479Z,95563.66
2023-02-09T16:40:23.288Z,95559.41
2023-02-09T16:42:50.465Z,95571.03
2023-02-09T16:45:18.488Z,95564.41
2023-02-09T16:47:50.317Z,95575.78
2023-02-09T16:50:26.509Z,95581.25
2023-02-09T16:52:56.605Z,95585.53
2023-02-09T16:55:32.219Z,95583.97
2023-02-09T16:58:01.737Z,95585.47
2023-02-09T17:00:32.374Z,95598.34
2023-02-09T17:03:14.127Z,95600.97
2023-02-09T17:05:42.867Z,95602.53
2023-02-09T17:08:17.800Z,95604.56
2023-02-09T17:10:45.610Z,95605.19
2023-02-09T17:13:12.679Z,95601.16
2023-02-09T17:15:43.926Z,95608.47
2023-02-09T17:18:25.121Z,95609.09
2023-02-09T17:20:55.300Z,95606.28
2023-02-09T17:23:25.029Z,95604.66
2023-02-09T17:25:55.163Z,95597.44
2023-02-09T17:28:26.199Z,95607.81
2023-02-09T17:30:56.256Z,95612.38
2023-02-09T17:33:25.417Z,95621.31
2023-02-09T17:36:23.928Z,95628.69
2023-02-09T17:38:44.258Z,95625.03
2023-02-09T17:41:17.112Z,95618.00
2023-02-09T17:43:44.057Z,95619.38
2023-02-09T17:46:12.233Z,95620.16
2023-02-09T17:48:39.266Z,95615.50
2023-02-09T17:51:09.694Z,95628.50
2023-02-09T17:53:36.440Z,95636.41
2023-02-09T17:56:03.346Z,95638.25
2023-02-09T17:58:30.048Z,95637.72
2023-02-09T18:00:57.120Z,95627.25
2023-02-09T18:03:26.057Z,95636.03
2023-02-09T18:05:55.989Z,95635.22
2023-02-09T18:08:22.968Z,95631.34
2023-02-09T18:10:49.760Z,95643.03
2023-02-09T18:13:19.271Z,95643.81
2023-02-09T18:15:48.814Z,95645.53
2023-02-09T18:18:15.931Z,95647.34
2023-02-09T18:20:42.652Z,95651.59
2023-02-09T18:23:13.279Z,95654.81
2023-02-09T18:25:40.134Z,95648.03
2023-02-09T18:28:07.611Z,95651.97
2023-02-09T18:30:39.046Z,95644.31
2023-02-09T18:33:06.608Z,95662.94
2023-02-09T18:35:41.539Z,95662.56
2023-02-09T18:38:10.217Z,95660.72
2023-02-09T18:40:37.898Z,95669.91
2023-02-09T18:43:05.706Z,95673.91
2023-02-09T18:45:33.014Z,95665.03
2023-02-09T18:48:00.755Z,95669.00
2023-02-09T18:50:30.172Z,95670.00
2023-02-09T18:52:59.313Z,95671.41
2023-02-09T18:55:29.725Z,95664.88
2023-02-09T18:58:04.424Z,95674.50
2023-02-09T19:00:31.235Z,95670.97
2023-02-09T19:02:58.814Z,95663.66
2023-02-09T19:05:29.267Z,95678.97
2023-02-09T19:07:56.569Z,95679.63
2023-02-09T19:10:23.773Z,95683.31
2023-02-09T19:12:50.432Z,95690.22
2023-02-09T19:15:17.849Z,95695.41
2023-02-09T19:17:45.334Z,95695.06
2023-02-09T19:20:17.106Z,95712.84
2023-02-09T19:22:43.866Z,95698.53
2023-02-09T19:25:10.599Z,95713.00
2023-02-09T19:27:37.654Z,95720.88
2023-02-09T19:30:04.870Z,95722.69
2023-02-09T19:32:31.619Z,95721.84
2023-02-09T19:34:58.533Z,95717.69
2023-02-09T19:37:25.173Z,95714.03
2023-02-09T19:40:04.328Z,95730.38
2023-02-09T19:42:32.148Z,95729.06
2023-02-09T19:44:59.133Z,95725.63
2023-02-09T19:47:25.985Z,95729.81
2023-02-09T19:49:56.900Z,95736.97
2023-02-09T19:52:27.516Z,95734.78
2023-02-09T19:54:55.487Z,95734.50
2023-02-09T19:57:23.427Z,95728.84
2023-02-09T19:59:50.109Z,95739.31
2023-02-09T20:02:17.551Z,95739.81
2023-02-09T20:04:45.983Z,95750.91
2023-02-09T20:07:13.759Z,95745.38
2023-02-09T20:09:41.623Z,95746.34
2023-02-09T20:12:08.399Z,95742.09
2023-02-09T20:14:35.232Z,95750.16
2023-02-09T20:17:02.011Z,95743.66
2023-02-09T20:19:28.791Z,95753.06
2023-02-09T20:21:55.468Z,95753.75
2023-02-09T20:24:22.573Z,95756.06
2023-02-09T20:26:49.459Z,95753.22
2023-02-09T20:29:16.921Z,95744.38
2023-02-09T20:31:44.749Z,95746.66
2023-02-09T20:34:13.420Z,95760.72
2023-02-09T20:36:41.958Z,95748.91
2023-02-09T20:39:11.008Z,95749.31
2023-02-09T20:41:37.692Z,95754.69
2023-02-09T20:44:23.229Z,95746.69
2023-02-09T20:46:55.573Z,95755.59
2023-02-09T20:49:23.870Z,95751.75
2023-02-09T20:51:50.483Z,95749.16
2023-02-09T20:54:17.150Z,95756.25
2023-02-09T20:56:43.982Z,95763.50
2023-02-09T20:59:11.952Z,95766.81
2023-02-09T21:01:39.238Z,95758.91
2023-02-09T21:04:07.512Z,95761.53
2023-02-09T21:06:37.047Z,95756.28
2023-02-09T21:09:07.797Z,95764.47
2023-02-09T21:11:34.556Z,95770.06
2023-02-09T21:14:04.454Z,95767.59
2023-02-09T21:16:31.741Z,95767.44
2023-02-09T21:18:59.062Z,95758.34
2023-02-09T21:21:27.119Z,95775.19
2023-02-09T21:23:54.083Z,95778.88
2023-02-09T21:26:22.789Z,95775.91
2023-02-09T21:28:51.360Z,95783.13
2023-02-09T21:31:21.133Z,95774.38
2023-02-09T21:33:48.159Z,95787.22
2023-02-09T21:36:14.807Z,95794.88
2023-02-09T21:38:44.337Z,95792.72
2023-02-09T21:41:32.315Z,95795.75
2023-02-09T21:44:00.512Z,95793.09
2023-02-09T21:46:27.917Z,95787.22
2023-02-09T21:48:55.074Z,95797.13
2023-02-09T21:51:22.338Z,95798.53
2023-02-09T21:53:49.154Z,95806.47
2023-02-09T21:56:15.864Z,95811.50
2023-02-09T21:58:42.700Z,95801.38
2023-02-09T22:01:11.191Z,95810.03
2023-02-09T22:03:38.756Z,95801.47
2023-02-09T22:06:06.222Z,95813.41
2023-02-09T22:08:33.046Z,95806.97
2023-02-09T22:11:01.757Z,95808.00
2023-02-09T22:13:29.190Z,95790.19
2023-02-09T22:15:56.318Z,95810.94
2023-02-09T22:18:23.196Z,95813.28
2023-02-09T22:20:50.946Z,95811.34
2023-02-09T22:23:19.360Z,95821.31
2023-02-09T22:25:46.084Z,95811.50
2023-02-09T22:28:13.830Z,95816.53
2023-02-09T22:30:40.773Z,95818.75
2023-02-09T22:33:07.430Z,95817.63
2023-02-09T22:35:34.131Z,95820.00
2023-02-09T22:38:00.794Z,95829.56
2023-02-09T22:40:27.417Z,95827.94
2023-02-09T22:42:54.034Z,95818.75
2023-02-09T22:45:20.638Z,95826.50
2023-02-09T22:47:47.210Z,95828.34
2023-02-09T22:50:13.844Z,95829.91
2023-02-09T22:52:40.424Z,95816.94
2023-02-09T22:55:07.091Z,95828.59
2023-02-09T22:57:33.764Z,95825.41
2023-02-09T23:00:00.325Z,95826.00
2023-02-09T23:02:26.964Z,95825.94
2023-02-09T23:04:53.648Z,95820.72
2023-02-09T23:07:20.368Z,95820.84
2023-02-09T23:09:47.012Z,95818.34
2023-02-09T23:12:13.628Z,95822.06
2023-02-09T23:14:40.227Z,95826.06
2023-02-09T23:17:06.841Z,95802.69
2023-02-09T23:19:33.489Z,95820.81
2023-02-09T23:22:00.312Z,95821.22
2023-02-09T23:24:27.844Z,95822.69
2023-02-09T23:26:54.882Z,95802.53
2023-02-09T23:29:21.799Z,95822.16
2023-02-09T23:31:48.560Z,95824.41
2023-02-09T23:34:18.241Z,95827.91
2023-02-09T23:36:44.881Z,95826.53
2023-02-09T23:39:13.954Z,95818.47
2023-02-09T23:41:40.545Z,95823.09
2023-02-09T23:44:07.130Z,95826.94
2023-02-09T23:46:33.863Z,95822.34
2023-02-09T23:49:00.513Z,95836.59
2023-02-09T23:51:29.855Z,95836.63
2023-02-09T23:53:58.098Z,95840.09
2023-02-09T23:56:24.787Z,95843.13
2023-02-09T23:58:52.516Z,95849.13
